Date,TemperatureHighF,TemperatureAvgF,TemperatureLowF,DewpointHighF,DewpointAvgF,DewpointLowF,HumidityHigh,HumidityAvg,HumidityLow,PressureMaxIn,PressureMinIn,WindSpeedMaxMPH,WindSpeedAvgMPH,GustSpeedMaxMPH,PrecipitationSumIn
2013-5-1,80.1,63.8,45.9,44.4,36.5,27.7,72,39,21,30.48,30.33,10,1,12,0.00
2013-5-2,81.7,64.1,48.0,46.4,39.4,27.9,68,42,25,30.47,30.33,13,1,13,0.00
2013-5-3,75.0,58.1,43.5,40.8,35.9,25.3,68,45,26,30.55,30.35,14,1,15,0.00
2013-5-4,79.7,61.9,44.1,46.2,40.0,29.8,88,50,17,30.40,30.20,12,1,15,0.00
2013-5-5,80.1,63.2,45.7,39.2,34.7,28.8,66,37,17,30.29,30.14,12,1,13,0.00
2013-5-6,80.4,64.2,44.4,41.7,32.2,18.3,73,35,11,30.24,30.06,12,1,13,0.00
2013-5-7,82.2,66.3,46.6,46.0,38.6,25.0,74,40,15,30.17,30.05,10,1,10,0.00
2013-5-8,78.3,62.8,49.1,58.5,51.0,41.0,93,68,36,30.19,30.06,17,1,19,0.06
2013-5-9,71.8,62.2,56.3,59.5,56.3,52.3,96,82,53,30.06,29.88,15,1,15,0.08
2013-5-10,73.9,60.6,53.1,61.3,56.1,51.8,100,87,53,30.01,29.84,9,0,9,0.05
2013-5-11,67.5,60.4,51.3,60.1,56.4,47.5,98,87,73,29.85,29.64,16,2,16,0.13
2013-5-12,59.4,50.5,40.5,47.8,40.4,28.0,93,70,42,29.81,29.64,17,1,17,0.02
2013-5-13,47.1,42.1,37.9,35.8,29.5,25.0,91,61,50,30.12,29.79,21,3,21,0.02
2013-5-14,54.5,43.3,32.2,36.5,30.0,23.5,97,64,32,30.16,30.05,13,1,14,0.01
2013-5-15,64.8,46.6,30.7,48.2,36.3,27.9,91,71,32,30.11,29.67,20,1,24,0.03
2013-5-16,70.0,55.2,48.0,47.7,44.0,35.2,95,71,29,29.87,29.65,25,3,25,0.00
2013-5-17,63.0,53.4,44.6,41.9,40.2,38.3,88,63,43,30.22,29.92,5,2,10,0.00
2013-5-18,72.0,62.7,39.7,44.8,37.4,30.2,93,42,24,30.36,30.25,11,1,13,0.00
2013-5-19,68.5,55.9,45.9,55.6,48.0,39.6,94,76,51,30.33,30.16,13,1,13,0.16
2013-5-20,66.6,59.0,53.4,62.4,57.2,52.0,98,94,84,30.16,30.02,15,0,15,0.12
2013-5-21,73.2,61.9,54.1,64.6,59.1,53.1,99,91,73,30.04,29.85,22,1,27,0.04
2013-5-22,80.1,62.5,51.4,68.5,59.7,50.5,98,91,65,29.96,29.79,16,1,19,0.04
2013-5-23,73.9,65.4,60.4,65.5,61.5,59.5,98,88,65,29.85,29.73,20,2,20,0.04
2013-5-24,60.4,52.2,44.6,59.5,51.6,44.1,98,98,97,29.94,29.70,7,1,8,0.01
2013-5-25,41.4,38.0,35.2,40.6,37.1,34.0,97,96,95,30.02,29.93,15,2,18,0.02
2013-5-26,47.3,41.5,36.9,43.5,39.3,36.1,98,92,79,30.15,29.89,16,1,16,0.02
2013-5-27,64.6,48.9,33.1,42.3,37.2,32.2,99,69,36,30.24,30.12,18,1,19,0.01
2013-5-28,73.6,56.6,38.5,48.0,41.3,36.0,96,62,34,30.29,30.15,13,1,14,0.01
2013-5-29,61.9,57.4,52.2,60.1,53.9,44.4,98,89,58,30.15,29.98,12,1,13,0.02
2013-5-30,84.6,70.6,59.4,66.2,62.5,58.6,99,78,48,30.12,30.02,16,1,16,0.00
2013-5-31,90.0,82.5,64.8,67.3,61.7,56.3,89,50,42,30.09,29.90,14,2,15,0.01